Time;durP1;ratioP1;P1;durP2;ratioP2;P2;SDS_P1;SDS_P2;PMS_P1;PMS_P2;Temp;Humidity;BMP_temperature;BMP_pressure;BME280_temperature;BME280_humidity;BME280_pressure;Samples;Min_cycle;Max_cycle;Signal;HPM_P1;HPM_P2
2021/10/23 00:01:34;;;;;;;;;8.75;7.00;;;;;;;;5035848;28;45563;-79
2021/10/23 00:04:00;;;;;;;;;9.50;9.50;;;;;;;;5035129;28;45414;-80
2021/10/23 00:06:25;;;;;;;;;10.33;10.00;;;;;;;;5038600;28;45463;-79
2021/10/23 00:08:50;;;;;;;;;11.25;9.50;;;;;;;;5034301;28;46931;-79
2021/10/23 00:11:15;;;;;;;;;12.00;9.33;;;;;;;;5038966;28;45510;-79
2021/10/23 00:13:44;;;;;;;;;14.00;7.75;;;;;;;;5021441;28;45470;-79
2021/10/23 00:16:12;;;;;;;;;13.75;9.00;;;;;;;;5037540;28;45901;-79
2021/10/23 00:18:47;;;;;;;;;8.75;8.75;;;;;;;;5041199;28;45405;-81
2021/10/23 00:21:35;;;;;;;;;12.75;9.25;;;;;;;;5053475;22;45539;-80
2021/10/23 00:24:00;;;;;;;;;9.75;9.75;;;;;;;;5014086;28;45656;-81
2021/10/23 00:26:41;;;;;;;;;13.25;9.25;;;;;;;;5011135;28;45595;-81
2021/10/23 00:29:09;;;;;;;;;11.50;8.00;;;;;;;;5014042;28;45605;-81
2021/10/23 00:32:19;;;;;;;;;11.50;8.00;;;;;;;;5012136;28;45866;-80
2021/10/23 00:34:55;;;;;;;;;12.00;12.00;;;;;;;;4933304;28;45617;-81
2021/10/23 00:38:00;;;;;;;;;14.50;11.00;;;;;;;;4937417;28;46136;-81
2021/10/23 00:40:26;;;;;;;;;10.75;8.50;;;;;;;;4879625;28;45604;-81
2021/10/23 00:42:54;;;;;;;;;10.50;9.00;;;;;;;;4883319;28;46167;-81
2021/10/23 00:48:20;;;;;;;;;10.25;9.00;;;;;;;;4828642;29;45983;-81
2021/10/23 00:53:45;;;;;;;;;10.50;9.00;;;;;;;;4809883;29;46407;-81
2021/10/23 00:56:34;;;;;;;;;8.00;8.00;;;;;;;;4811835;29;46983;-80
2021/10/23 00:58:59;;;;;;;;;7.75;6.75;;;;;;;;4813542;29;46620;-81
2021/10/23 01:01:58;;;;;;;;;8.00;8.00;;;;;;;;4810174;29;46245;-80
2021/10/23 01:04:24;;;;;;;;;7.00;4.75;;;;;;;;4808183;29;45712;-81
2021/10/23 01:06:50;;;;;;;;;7.00;5.25;;;;;;;;4811135;29;46015;-81
2021/10/23 01:09:15;;;;;;;;;7.50;6.00;;;;;;;;4810864;29;45632;-81
2021/10/23 01:11:41;;;;;;;;;6.75;6.00;;;;;;;;4866667;28;45876;-81
2021/10/23 01:14:13;;;;;;;;;6.25;5.50;;;;;;;;4889181;28;45551;-81
2021/10/23 01:16:52;;;;;;;;;;;;;;;;;;;;;
2021/10/23 01:19:23;;;;;;;;;7.50;6.50;;;;;;;;4885587;28;75546;-80
2021/10/23 01:21:53;;;;;;;;;8.75;7.75;;;;;;;;4909550;28;45702;-81
2021/10/23 01:24:19;;;;;;;;;7.50;7.00;;;;;;;;4925426;28;45556;-81
2021/10/23 01:27:06;;;;;;;;;8.00;7.00;;;;;;;;4954552;28;45650;-81
2021/10/23 01:29:48;;;;;;;;;6.25;6.25;;;;;;;;4958788;28;45585;-81
2021/10/23 01:32:14;;;;;;;;;8.25;3.75;;;;;;;;5027491;28;45933;-80
2021/10/23 01:34:42;;;;;;;;;7.00;4.00;;;;;;;;4991771;28;50727;-81
2021/10/23 01:37:36;;;;;;;;;;;;;;;;;;;;;
2021/10/23 01:43:28;;;;;;;;;;;;;;;;;;;;;
2021/10/23 01:46:13;;;;;;;;;7.75;6.50;;;;;;;;4987165;28;69267;-81
2021/10/23 01:48:51;;;;;;;;;7.50;7.50;;;;;;;;4982938;28;45645;-81
2021/10/23 01:51:16;;;;;;;;;7.50;7.25;;;;;;;;4989125;28;46213;-81
2021/10/23 01:57:12;;;;;;;;;;;;;;;;;;;;;
2021/10/23 02:05:45;;;;;;;;;8.00;6.75;;;;;;;;4991797;28;45487;-80
2021/10/23 02:17:56;;;;;;;;;6.75;4.50;;;;;;;;4898166;28;47108;-80
2021/10/23 02:24:20;;;;;;;;;8.50;5.50;;;;;;;;4930673;28;45527;-80
2021/10/23 02:30:55;;;;;;;;;;;;;;;;;;;;;
2021/10/23 02:36:23;;;;;;;;;7.50;6.25;;;;;;;;4819405;29;45916;-80
2021/10/23 02:38:49;;;;;;;;;6.00;6.00;;;;;;;;4821504;29;46393;-80
2021/10/23 02:41:14;;;;;;;;;3.00;3.00;;;;;;;;4837001;29;46522;-81
2021/10/23 02:43:40;;;;;;;;;3.75;3.00;;;;;;;;4823409;29;45490;-80
2021/10/23 02:46:05;;;;;;;;;7.25;6.50;;;;;;;;4820972;29;46213;-80
2021/10/23 02:49:12;;;;;;;;;;;;;;;;;;;;;
2021/10/23 02:55:16;;;;;;;;;7.50;5.00;;;;;;;;4826386;29;46207;-80
2021/10/23 02:58:11;;;;;;;;;6.25;5.50;;;;;;;;4826932;29;45882;-79
2021/10/23 03:04:05;;;;;;;;;11.25;3.50;;;;;;;;4841040;29;45631;-80
2021/10/23 03:06:44;;;;;;;;;9.00;7.00;;;;;;;;4888724;28;46170;-80
2021/10/23 03:18:27;;;;;;;;;12.50;9.00;;;;;;;;4887688;28;45617;-80
2021/10/23 03:20:57;;;;;;;;;12.00;9.00;;;;;;;;4920417;28;45818;-81
2021/10/23 03:24:02;;;;;;;;;9.75;9.00;;;;;;;;4907479;28;47451;-80
2021/10/23 03:26:52;;;;;;;;;8.25;8.25;;;;;;;;4897733;28;45937;-81
2021/10/23 03:33:01;;;;;;;;;12.50;10.75;;;;;;;;4861112;29;45486;-80
2021/10/23 03:35:32;;;;;;;;;15.25;11.50;;;;;;;;4843634;29;46781;-81
2021/10/23 03:38:15;;;;;;;;;10.00;9.00;;;;;;;;4845128;29;45611;-81
2021/10/23 03:40:50;;;;;;;;;13.50;9.50;;;;;;;;4843397;29;46165;-81
2021/10/23 03:43:15;;;;;;;;;15.00;10.00;;;;;;;;4839654;29;48182;-81
2021/10/23 03:45:50;;;;;;;;;14.50;11.00;;;;;;;;4846693;29;45704;-81
2021/10/23 03:51:50;;;;;;;;;;;;;;;;;;;;;
2021/10/23 03:57:48;;;;;;;;;14.00;13.50;;;;;;;;4841803;29;45592;-82
2021/10/23 04:15:39;;;;;;;;;10.25;8.50;;;;;;;;5017420;28;46661;-81
2021/10/23 04:40:38;;;;;;;;;12.75;9.50;;;;;;;;4935605;28;45523;-82
2021/10/23 04:52:49;;;;;;;;;13.50;12.25;;;;;;;;4842335;29;47092;-81
2021/10/23 05:31:51;;;;;;;;;17.50;10.00;;;;;;;;4923951;28;46563;-80
2021/10/23 05:34:35;;;;;;;;;;;;;;;;;;;;;
2021/10/23 05:46:04;;;;;;;;;15.00;12.75;;;;;;;;4920319;28;45600;-81
2021/10/23 06:04:00;;;;;;;;;11.75;11.75;;;;;;;;4882423;28;46332;-83
2021/10/23 06:18:58;;;;;;;;;14.75;13.25;;;;;;;;4937546;28;46360;-81
2021/10/23 06:33:47;;;;;;;;;15.00;9.75;;;;;;;;4937515;28;45588;-80
2021/10/23 06:36:13;;;;;;;;;19.00;14.25;;;;;;;;4935206;28;45956;-80
2021/10/23 06:38:48;;;;;;;;;;;;;;;;;;;;;
2021/10/23 07:02:09;;;;;;;;;14.00;14.00;;;;;;;;4907569;28;45501;-82
2021/10/23 07:07:46;;;;;;;;;16.25;14.50;;;;;;;;4875228;28;45629;-84
2021/10/23 07:10:41;;;;;;;;;15.25;14.00;;;;;;;;4876664;28;45869;-81
2021/10/23 07:13:09;;;;;;;;;13.00;12.00;;;;;;;;4879990;28;46269;-82
2021/10/23 07:15:36;;;;;;;;;15.00;15.00;;;;;;;;4990300;22;45722;-93
2021/10/23 07:18:01;;;;;;;;;18.75;13.75;;;;;;;;5058317;28;46111;-95
2021/10/23 07:20:27;;;;;;;;;18.00;14.25;;;;;;;;5062498;28;45524;-94
2021/10/23 07:22:53;;;;;;;;;19.25;13.25;;;;;;;;5045671;28;45546;-95
2021/10/23 07:25:19;;;;;;;;;15.25;13.25;;;;;;;;5066496;27;45574;-94
2021/10/23 07:27:44;;;;;;;;;16.25;13.50;;;;;;;;5062892;28;45382;-95
2021/10/23 07:30:10;;;;;;;;;16.50;14.00;;;;;;;;5049596;28;45512;-94
2021/10/23 07:32:39;;;;;;;;;17.25;15.50;;;;;;;;5051284;28;45653;-95
2021/10/23 07:35:05;;;;;;;;;15.50;14.75;;;;;;;;5071334;27;44921;-94
2021/10/23 07:37:31;;;;;;;;;22.50;17.00;;;;;;;;5049762;28;47115;-96
2021/10/23 07:39:56;;;;;;;;;21.25;16.75;;;;;;;;5054777;28;45807;-96
2021/10/23 07:42:22;;;;;;;;;21.75;20.00;;;;;;;;5053178;28;45229;-95
2021/10/23 07:44:51;;;;;;;;;22.25;18.50;;;;;;;;5082034;27;45440;-95
2021/10/23 07:47:18;;;;;;;;;19.00;17.75;;;;;;;;5063505;22;47171;-79
2021/10/23 07:49:44;;;;;;;;;24.50;20.50;;;;;;;;5025355;28;45811;-79
2021/10/23 07:52:09;;;;;;;;;19.25;19.25;;;;;;;;5016031;28;51788;-80
2021/10/23 07:54:34;;;;;;;;;22.00;19.75;;;;;;;;5020809;28;45533;-80
2021/10/23 07:57:00;;;;;;;;;25.25;19.75;;;;;;;;5016105;28;46027;-79
2021/10/23 07:59:26;;;;;;;;;19.00;16.00;;;;;;;;5017166;28;45461;-81
2021/10/23 08:02:23;;;;;;;;;22.25;19.75;;;;;;;;5021493;28;51200;-80
2021/10/23 08:04:49;;;;;;;;;15.00;14.75;;;;;;;;4934445;28;45591;-79
2021/10/23 08:07:14;;;;;;;;;21.25;16.00;;;;;;;;4931416;28;46173;-79
2021/10/23 08:09:48;;;;;;;;;20.00;16.67;;;;;;;;4934346;28;45479;-79
2021/10/23 08:12:13;;;;;;;;;22.25;16.25;;;;;;;;4931663;28;46371;-79
2021/10/23 08:14:39;;;;;;;;;20.00;14.00;;;;;;;;4928181;28;46274;-80
2021/10/23 08:17:04;;;;;;;;;17.75;16.25;;;;;;;;4934164;28;46001;-80
2021/10/23 08:19:29;;;;;;;;;21.00;14.00;;;;;;;;4928702;28;46077;-79
2021/10/23 08:21:55;;;;;;;;;17.50;14.75;;;;;;;;4937506;28;45629;-79
2021/10/23 08:24:20;;;;;;;;;17.00;15.00;;;;;;;;4934046;28;45645;-80
2021/10/23 08:26:46;;;;;;;;;16.00;14.00;;;;;;;;4917652;28;47102;-80
2021/10/23 08:29:12;;;;;;;;;14.75;14.75;;;;;;;;4938066;28;45715;-79
2021/10/23 08:31:37;;;;;;;;;19.25;15.75;;;;;;;;4935242;28;46100;-79
2021/10/23 08:34:03;;;;;;;;;22.50;19.75;;;;;;;;4930632;28;45478;-79
2021/10/23 08:36:29;;;;;;;;;20.75;15.50;;;;;;;;5028732;28;47377;-79
2021/10/23 08:38:55;;;;;;;;;17.25;14.75;;;;;;;;5014410;28;46172;-80
2021/10/23 08:41:21;;;;;;;;;17.25;17.25;;;;;;;;5016178;28;46213;-79
2021/10/23 08:43:47;;;;;;;;;22.33;17.67;;;;;;;;5020768;28;47047;-79
2021/10/23 08:46:27;;;;;;;;;19.25;17.50;;;;;;;;5013087;28;47520;-80
2021/10/23 08:48:53;;;;;;;;;18.75;17.50;;;;;;;;5018775;28;45545;-80
2021/10/23 08:51:22;;;;;;;;;17.75;16.00;;;;;;;;5013266;28;45499;-81
2021/10/23 08:53:47;;;;;;;;;22.25;17.50;;;;;;;;5017601;28;47560;-80
2021/10/23 08:56:36;;;;;;;;;19.75;16.25;;;;;;;;5016860;28;46571;-80
2021/10/23 08:59:10;;;;;;;;;15.75;15.75;;;;;;;;5015427;28;45629;-80
2021/10/23 09:01:35;;;;;;;;;19.25;16.25;;;;;;;;5023549;28;45636;-80
2021/10/23 09:04:01;;;;;;;;;18.75;14.75;;;;;;;;5018176;28;45598;-80
2021/10/23 09:06:29;;;;;;;;;24.00;19.33;;;;;;;;5023481;28;45583;-80
2021/10/23 09:09:01;;;;;;;;;18.50;16.50;;;;;;;;5005780;28;45572;-80
2021/10/23 09:12:32;;;;;;;;;20.50;17.50;;;;;;;;5018598;28;45603;-80
2021/10/23 09:14:39;;;;;;;;;21.50;18.50;;;;;;;;5005755;28;45706;-80
2021/10/23 09:17:06;;;;;;;;;23.50;17.25;;;;;;;;5016529;28;46792;-80
2021/10/23 09:19:43;;;;;;;;;19.50;17.00;;;;;;;;5009402;28;45811;-79
2021/10/23 09:22:23;;;;;;;;;26.75;21.75;;;;;;;;5009619;28;45600;-79
2021/10/23 09:24:49;;;;;;;;;25.25;20.50;;;;;;;;5019035;28;47476;-80
2021/10/23 09:27:15;;;;;;;;;21.00;17.50;;;;;;;;5009477;28;46410;-81
2021/10/23 09:29:40;;;;;;;;;22.00;17.50;;;;;;;;5012034;28;46643;-80
2021/10/23 09:32:08;;;;;;;;;21.00;19.33;;;;;;;;5025442;28;46101;-80
2021/10/23 09:34:34;;;;;;;;;21.00;19.75;;;;;;;;5020027;28;45633;-80
2021/10/23 09:37:02;;;;;;;;;23.50;19.75;;;;;;;;5021392;28;47222;-80
2021/10/23 09:39:28;;;;;;;;;22.50;20.00;;;;;;;;5018298;28;45656;-80
2021/10/23 09:48:37;;;;;;;;;20.75;17.50;;;;;;;;4853844;28;46549;-79
2021/10/23 09:51:25;;;;;;;;;26.75;20.25;;;;;;;;4881042;28;46047;-80
2021/10/23 09:53:51;;;;;;;;;20.00;18.75;;;;;;;;4879146;28;45783;-79
2021/10/23 09:56:17;;;;;;;;;20.00;18.50;;;;;;;;4883117;28;45600;-80
2021/10/23 09:59:07;;;;;;;;;21.25;18.50;;;;;;;;4881518;28;46405;-80
2021/10/23 10:01:42;;;;;;;;;20.75;18.00;;;;;;;;4876668;28;46458;-80
2021/10/23 10:04:12;;;;;;;;;17.25;16.25;;;;;;;;4866808;28;45512;-80
2021/10/23 10:06:41;;;;;;;;;22.25;18.00;;;;;;;;4886178;28;45524;-80
2021/10/23 10:09:14;;;;;;;;;20.00;17.25;;;;;;;;4884739;28;45669;-80
2021/10/23 10:11:39;;;;;;;;;22.75;18.75;;;;;;;;4883432;28;45759;-80
2021/10/23 10:14:13;;;;;;;;;22.75;21.25;;;;;;;;4887530;28;46058;-80
2021/10/23 10:16:42;;;;;;;;;7.25;1.75;;;;;;;;4881570;28;45942;-80
2021/10/23 10:19:16;;;;;;;;;21.75;17.25;;;;;;;;4883398;28;45568;-80
2021/10/23 10:21:42;;;;;;;;;19.25;17.25;;;;;;;;4930739;28;45659;-81
2021/10/23 10:24:14;;;;;;;;;20.00;18.75;;;;;;;;4939273;28;45912;-80
2021/10/23 10:26:56;;;;;;;;;19.25;17.50;;;;;;;;5014480;28;45619;-80
2021/10/23 10:29:31;;;;;;;;;23.75;17.25;;;;;;;;5017917;28;45576;-80
2021/10/23 10:31:58;;;;;;;;;23.00;16.00;;;;;;;;5023961;28;45538;-80
2021/10/23 10:34:48;;;;;;;;;22.50;17.00;;;;;;;;5016596;28;46495;-80
2021/10/23 10:42:53;;;;;;;;;13.50;12.00;;;;;;;;5002293;28;45634;-82
2021/10/23 10:45:40;;;;;;;;;20.75;16.50;;;;;;;;5013249;28;46001;-79
2021/10/23 10:48:08;;;;;;;;;17.25;14.75;;;;;;;;5004735;28;45606;-80
2021/10/23 10:50:35;;;;;;;;;16.25;14.75;;;;;;;;5018195;28;47562;-80
2021/10/23 10:53:11;;;;;;;;;15.75;11.50;;;;;;;;5036475;28;45038;-80
2021/10/23 10:55:41;;;;;;;;;16.00;14.50;;;;;;;;5005136;28;45671;-77
2021/10/23 10:58:09;;;;;;;;;12.50;12.25;;;;;;;;5012878;28;45604;-79
2021/10/23 11:00:53;;;;;;;;;15.00;12.00;;;;;;;;5014120;28;46488;-78
2021/10/23 11:03:50;;;;;;;;;14.25;11.00;;;;;;;;5016423;28;45729;-80
2021/10/23 11:06:31;;;;;;;;;10.75;9.50;;;;;;;;4926084;28;45645;-81
2021/10/23 11:09:25;;;;;;;;;11.75;11.75;;;;;;;;4924780;28;45651;-77
2021/10/23 11:11:55;;;;;;;;;18.25;14.50;;;;;;;;4927474;28;46401;-81
2021/10/23 11:14:23;;;;;;;;;6.50;4.50;;;;;;;;4939703;28;45589;-83
2021/10/23 11:16:55;;;;;;;;;10.25;8.00;;;;;;;;4915290;28;45520;-77
2021/10/23 11:19:21;;;;;;;;;4.75;4.00;;;;;;;;4937040;28;46076;-82
2021/10/23 11:21:48;;;;;;;;;3.00;1.00;;;;;;;;4934857;28;45626;-79
2021/10/23 11:24:19;;;;;;;;;7.25;3.75;;;;;;;;4937034;28;56094;-80
2021/10/23 11:26:48;;;;;;;;;4.25;2.50;;;;;;;;4936170;28;46878;-79
2021/10/23 11:29:23;;;;;;;;;5.75;1.75;;;;;;;;4938565;28;45426;-79
2021/10/23 11:34:21;;;;;;;;;2.00;2.00;;;;;;;;5078430;27;45363;-94
2021/10/23 11:36:57;;;;;;;;;3.75;3.00;;;;;;;;5071513;27;45395;-90
2021/10/23 11:39:23;;;;;;;;;4.25;4.25;;;;;;;;5087232;27;45346;-93
2021/10/23 11:41:48;;;;;;;;;6.75;4.75;;;;;;;;5084561;27;46284;-92
2021/10/23 11:44:13;;;;;;;;;5.50;5.50;;;;;;;;5085745;27;45400;-94
2021/10/23 11:46:39;;;;;;;;;12.25;9.00;;;;;;;;5071561;27;45490;-92
2021/10/23 11:49:06;;;;;;;;;8.75;7.50;;;;;;;;5085630;27;45544;-93
2021/10/23 11:51:31;;;;;;;;;11.00;8.25;;;;;;;;5063885;28;47429;-91
2021/10/23 11:54:01;;;;;;;;;10.00;8.25;;;;;;;;5064472;28;45594;-91
2021/10/23 11:56:26;;;;;;;;;10.50;8.25;;;;;;;;5068522;27;45415;-93
2021/10/23 11:58:53;;;;;;;;;11.25;9.25;;;;;;;;5082524;27;45553;-93
2021/10/23 12:01:24;;;;;;;;;10.50;9.00;;;;;;;;5084717;27;46119;-94
2021/10/23 12:07:29;;;;;;;;;19.50;16.00;;;;;;;;5039396;28;44941;-91
2021/10/23 12:10:04;;;;;;;;;14.75;12.75;;;;;;;;5025646;28;44947;-94
2021/10/23 12:17:34;;;;;;;;;17.25;11.50;;;;;;;;5018343;28;45500;-82
2021/10/23 12:20:12;;;;;;;;;12.33;7.67;;;;;;;;5040706;22;45489;-94
2021/10/23 12:22:37;;;;;;;;;12.00;10.50;;;;;;;;5058963;28;45569;-94
2021/10/23 12:28:12;;;;;;;;;13.75;10.75;;;;;;;;5030798;28;45587;-93
2021/10/23 12:30:38;;;;;;;;;10.75;10.25;;;;;;;;5043394;28;45431;-95
2021/10/23 12:33:03;;;;;;;;;12.25;9.00;;;;;;;;5035681;28;47099;-93
2021/10/23 12:35:37;;;;;;;;;10.00;10.00;;;;;;;;5036512;28;45805;-93
2021/10/23 12:38:08;;;;;;;;;18.25;12.25;;;;;;;;5065198;28;45544;-91
2021/10/23 12:40:36;;;;;;;;;12.50;10.50;;;;;;;;5037979;28;45891;-92
2021/10/23 12:43:03;;;;;;;;;13.25;12.00;;;;;;;;5069036;28;45522;-92
2021/10/23 12:45:33;;;;;;;;;11.50;10.00;;;;;;;;5040452;28;45321;-93
2021/10/23 12:48:02;;;;;;;;;14.00;11.75;;;;;;;;5041373;28;45458;-93
2021/10/23 12:50:27;;;;;;;;;17.25;12.00;;;;;;;;5060145;28;45869;-93
2021/10/23 12:52:53;;;;;;;;;12.50;10.00;;;;;;;;5067018;28;45694;-92
2021/10/23 12:55:18;;;;;;;;;10.50;9.50;;;;;;;;5054902;28;45385;-90
2021/10/23 12:57:44;;;;;;;;;10.75;9.25;;;;;;;;5042864;28;45624;-92
2021/10/23 13:00:10;;;;;;;;;13.75;9.75;;;;;;;;5060664;28;45504;-90
2021/10/23 13:02:35;;;;;;;;;13.50;10.00;;;;;;;;5060570;28;47126;-93
2021/10/23 13:05:00;;;;;;;;;19.00;13.25;;;;;;;;5054026;28;45696;-93
2021/10/23 13:07:26;;;;;;;;;9.75;9.25;;;;;;;;5032513;28;45419;-92
2021/10/23 13:09:51;;;;;;;;;9.25;8.75;;;;;;;;5043285;28;45357;-91
2021/10/23 13:12:16;;;;;;;;;9.67;9.67;;;;;;;;5040200;28;46692;-92
2021/10/23 13:14:42;;;;;;;;;9.00;9.00;;;;;;;;5054569;28;45661;-93
2021/10/23 13:17:07;;;;;;;;;6.00;6.00;;;;;;;;5040084;28;45540;-92
2021/10/23 13:19:32;;;;;;;;;6.67;5.00;;;;;;;;5042694;28;45493;-92
2021/10/23 13:21:58;;;;;;;;;6.50;4.50;;;;;;;;5063402;28;48350;-93
2021/10/23 13:24:23;;;;;;;;;6.25;6.00;;;;;;;;5063823;28;45446;-92
2021/10/23 13:26:48;;;;;;;;;6.00;5.75;;;;;;;;5071860;28;45370;-91
2021/10/23 13:29:15;;;;;;;;;7.50;6.00;;;;;;;;5078289;28;44849;-90
2021/10/23 13:32:03;;;;;;;;;8.50;7.00;;;;;;;;5072572;27;45554;-94
2021/10/23 13:34:29;;;;;;;;;7.75;6.50;;;;;;;;5067068;28;45194;-91
2021/10/23 13:36:54;;;;;;;;;5.00;5.00;;;;;;;;5068947;28;45494;-92
2021/10/23 13:39:19;;;;;;;;;8.33;6.00;;;;;;;;5063423;28;45272;-94
2021/10/23 13:41:45;;;;;;;;;4.25;4.00;;;;;;;;5071656;28;45606;-92
2021/10/23 13:44:10;;;;;;;;;4.50;4.00;;;;;;;;5058367;28;45744;-94
2021/10/23 13:46:35;;;;;;;;;5.50;4.75;;;;;;;;5057162;28;45516;-93
2021/10/23 13:49:01;;;;;;;;;4.75;4.75;;;;;;;;5059747;28;45674;-93
2021/10/23 13:51:26;;;;;;;;;5.00;3.75;;;;;;;;5059769;28;47238;-94
2021/10/23 13:53:52;;;;;;;;;4.00;4.00;;;;;;;;5060714;28;44905;-94
2021/10/23 13:56:17;;;;;;;;;7.25;4.50;;;;;;;;5061858;28;45489;-93
2021/10/23 13:58:42;;;;;;;;;4.75;4.75;;;;;;;;5059917;28;45862;-93
2021/10/23 14:01:07;;;;;;;;;4.33;4.33;;;;;;;;5071809;28;45474;-91
2021/10/23 14:03:33;;;;;;;;;10.50;9.00;;;;;;;;5063264;28;45874;-91
2021/10/23 14:05:58;;;;;;;;;9.50;6.25;;;;;;;;5067540;28;45498;-93
2021/10/23 14:08:23;;;;;;;;;10.50;6.25;;;;;;;;5057867;28;45519;-93
2021/10/23 14:10:49;;;;;;;;;4.00;4.00;;;;;;;;5065244;28;48754;-93
2021/10/23 14:18:30;;;;;;;;;1.00;1.00;;;;;;;;4655704;22;47069;-80
2021/10/23 14:20:56;;;;;;;;;6.00;6.00;;;;;;;;4987095;28;45815;-79
2021/10/23 14:23:21;;;;;;;;;7.00;5.00;;;;;;;;4991068;28;45472;-74
2021/10/23 14:25:53;;;;;;;;;8.00;6.25;;;;;;;;5023865;22;46072;-94
2021/10/23 14:30:53;;;;;;;;;13.25;6.00;;;;;;;;5403160;22;47111;-93
2021/10/23 14:33:18;;;;;;;;;4.00;4.00;;;;;;;;5035264;28;45561;-94
2021/10/23 14:35:43;;;;;;;;;5.00;5.00;;;;;;;;5039738;28;45431;-94
2021/10/23 14:50:24;;;;;;;;;8.25;5.50;;;;;;;;4980359;28;45512;-81
2021/10/23 14:52:49;;;;;;;;;5.50;4.00;;;;;;;;4974508;28;45546;-80
2021/10/23 14:58:46;;;;;;;;;5.75;5.75;;;;;;;;4975800;28;56405;-80
2021/10/23 15:01:11;;;;;;;;;6.00;6.00;;;;;;;;4978136;28;46344;-81
2021/10/23 15:04:05;;;;;;;;;5.75;4.00;;;;;;;;4985923;28;47660;-80
2021/10/23 15:06:33;;;;;;;;;4.75;4.00;;;;;;;;4980419;28;45647;-80
2021/10/23 15:15:18;;;;;;;;;5.00;5.00;;;;;;;;4980101;28;45772;-81
2021/10/23 15:17:51;;;;;;;;;9.75;7.25;;;;;;;;4982512;28;45630;-80
2021/10/23 15:20:16;;;;;;;;;10.50;8.25;;;;;;;;5037892;22;45506;-94
2021/10/23 15:22:42;;;;;;;;;8.25;6.00;;;;;;;;5046513;28;45568;-96
2021/10/23 15:25:08;;;;;;;;;5.75;5.00;;;;;;;;5062382;28;45487;-95
2021/10/23 15:27:34;;;;;;;;;7.00;5.25;;;;;;;;5060994;28;45383;-94
2021/10/23 15:30:00;;;;;;;;;6.00;6.00;;;;;;;;5046048;28;45482;-94
2021/10/23 15:32:25;;;;;;;;;5.75;5.75;;;;;;;;5043596;28;45453;-96
2021/10/23 15:34:51;;;;;;;;;6.00;6.00;;;;;;;;5052098;28;47498;-96
2021/10/23 15:37:18;;;;;;;;;7.50;7.50;;;;;;;;5064034;28;45466;-96
2021/10/23 15:39:43;;;;;;;;;9.75;7.50;;;;;;;;5067519;28;45511;-96
2021/10/23 15:42:13;;;;;;;;;12.00;9.00;;;;;;;;5063426;28;45354;-95
2021/10/23 15:44:38;;;;;;;;;10.50;9.00;;;;;;;;5047205;28;47136;-96
2021/10/23 15:47:06;;;;;;;;;10.00;6.25;;;;;;;;5046477;28;46293;-96
2021/10/23 15:54:55;;;;;;;;;;;;;;;;;;;;;
2021/10/23 15:57:20;;;;;;;;;8.00;8.00;;;;;;;;5005044;27;74692;-79
2021/10/23 15:59:50;;;;;;;;;9.25;7.25;;;;;;;;5069040;27;46062;-80
2021/10/23 16:02:15;;;;;;;;;11.00;9.00;;;;;;;;5058517;27;45625;-79
2021/10/23 16:04:41;;;;;;;;;9.00;7.33;;;;;;;;5070721;27;45693;-78
2021/10/23 16:07:34;;;;;;;;;10.25;9.00;;;;;;;;5075011;27;45543;-79
2021/10/23 16:10:00;;;;;;;;;9.50;5.00;;;;;;;;5058670;27;45567;-79
2021/10/23 16:12:36;;;;;;;;;9.00;5.50;;;;;;;;5078578;27;45487;-79
2021/10/23 16:24:26;;;;;;;;;10.75;6.75;;;;;;;;5073929;27;45569;-80
2021/10/23 16:26:54;;;;;;;;;11.00;6.50;;;;;;;;5074026;27;46517;-79
2021/10/23 16:29:19;;;;;;;;;9.50;6.25;;;;;;;;5085407;27;48346;-80
2021/10/23 16:31:44;;;;;;;;;6.25;6.25;;;;;;;;5108295;22;45355;-93
2021/10/23 16:34:09;;;;;;;;;10.50;6.25;;;;;;;;5099753;22;45452;-96
2021/10/23 16:36:35;;;;;;;;;8.25;5.50;;;;;;;;5120555;22;47484;-95
2021/10/23 16:42:07;;;;;;;;;8.25;6.50;;;;;;;;5037138;22;47646;-79
2021/10/23 16:44:32;;;;;;;;;7.00;5.00;;;;;;;;5043425;28;45571;-80
2021/10/23 16:46:58;;;;;;;;;11.75;7.00;;;;;;;;5035651;28;45635;-78
2021/10/23 16:49:23;;;;;;;;;5.25;4.50;;;;;;;;5030178;28;45688;-78
2021/10/23 16:51:48;;;;;;;;;7.00;7.00;;;;;;;;5044750;28;45691;-80
2021/10/23 16:54:15;;;;;;;;;9.50;6.00;;;;;;;;5037499;27;45517;-78
2021/10/23 16:56:40;;;;;;;;;8.50;8.00;;;;;;;;5031840;28;46317;-79
2021/10/23 16:59:07;;;;;;;;;8.50;8.50;;;;;;;;5035842;28;45583;-80
2021/10/23 17:01:33;;;;;;;;;13.00;10.25;;;;;;;;5029115;28;47739;-81
2021/10/23 17:04:01;;;;;;;;;12.25;10.25;;;;;;;;5036588;28;45536;-81
2021/10/23 17:06:26;;;;;;;;;15.00;12.00;;;;;;;;5029614;28;45654;-81
2021/10/23 17:08:51;;;;;;;;;15.75;13.50;;;;;;;;5032220;27;45748;-81
2021/10/23 17:11:17;;;;;;;;;48.00;33.33;;;;;;;;5038033;28;45568;-81
2021/10/23 17:13:42;;;;;;;;;38.50;29.50;;;;;;;;5052626;22;45724;-94
2021/10/23 17:16:07;;;;;;;;;34.33;29.00;;;;;;;;5020205;28;47006;-95
2021/10/23 17:18:32;;;;;;;;;33.50;28.50;;;;;;;;5035844;28;45478;-95
2021/10/23 17:21:00;;;;;;;;;41.00;29.67;;;;;;;;5035140;22;46403;-80
2021/10/23 17:23:39;;;;;;;;;40.50;29.75;;;;;;;;5036523;28;45617;-79
2021/10/23 17:29:34;;;;;;;;;41.00;28.25;;;;;;;;4998269;28;46420;-79
2021/10/23 17:38:08;;;;;;;;;27.25;24.25;;;;;;;;4921687;28;45950;-79
2021/10/23 17:40:50;;;;;;;;;24.00;21.00;;;;;;;;4920383;28;54756;-80
2021/10/23 17:43:15;;;;;;;;;36.50;27.00;;;;;;;;4922184;28;45655;-80
2021/10/23 17:45:41;;;;;;;;;31.33;22.00;;;;;;;;4908700;28;45654;-79
2021/10/23 17:48:09;;;;;;;;;27.75;22.00;;;;;;;;4921015;28;45801;-79
2021/10/23 17:50:53;;;;;;;;;31.00;22.50;;;;;;;;4925361;28;45796;-79
2021/10/23 17:53:34;;;;;;;;;25.50;20.75;;;;;;;;4928834;28;45548;-79
2021/10/23 17:55:59;;;;;;;;;24.50;21.25;;;;;;;;4927214;28;45479;-79
2021/10/23 17:58:43;;;;;;;;;24.67;21.00;;;;;;;;4924382;28;45585;-79
2021/10/23 18:01:25;;;;;;;;;28.75;22.00;;;;;;;;4921048;28;46165;-79
2021/10/23 18:07:25;;;;;;;;;24.75;24.00;;;;;;;;4973782;28;46221;-79
2021/10/23 18:10:08;;;;;;;;;;;;;;;;;;;;;
2021/10/23 18:12:46;;;;;;;;;26.25;21.00;;;;;;;;4968736;28;65402;-79
2021/10/23 18:15:28;;;;;;;;;26.50;23.50;;;;;;;;4997268;28;45517;-79
2021/10/23 18:18:07;;;;;;;;;;;;;;;;;;;;;
2021/10/23 18:20:53;;;;;;;;;27.00;22.50;;;;;;;;5032239;28;75417;-80
2021/10/23 18:23:49;;;;;;;;;25.25;24.00;;;;;;;;5032034;28;51307;-80
2021/10/23 18:26:30;;;;;;;;;;;;;;;;;;;;;
2021/10/23 18:32:37;;;;;;;;;;;;;;;;;;;;;
2021/10/23 18:35:49;;;;;;;;;;;;;;;;;;;;;
2021/10/23 18:39:01;;;;;;;;;33.25;30.50;;;;;;;;5033010;28;67149;-79
2021/10/23 18:48:11;;;;;;;;;34.00;29.75;;;;;;;;4844432;29;46024;-79
2021/10/23 18:50:36;;;;;;;;;37.50;33.00;;;;;;;;4849083;29;45572;-79
2021/10/23 18:53:30;;;;;;;;;41.00;30.25;;;;;;;;4847229;29;45716;-79
2021/10/23 18:55:58;;;;;;;;;40.00;31.75;;;;;;;;4845306;29;46227;-78
2021/10/23 18:59:18;;;;;;;;;;;;;;;;;;;;;
2021/10/23 19:02:19;;;;;;;;;;;;;;;;;;;;;
2021/10/23 19:07:35;;;;;;;;;41.00;32.25;;;;;;;;4834777;29;45473;-80
2021/10/23 19:13:04;;;;;;;;;;;;;;;;;;;;;
2021/10/23 19:15:50;;;;;;;;;42.25;34.50;;;;;;;;4924017;28;72048;-80
2021/10/23 19:24:54;;;;;;;;;;;;;;;;;;;;;
2021/10/23 19:27:51;;;;;;;;;35.25;32.00;;;;;;;;4875678;28;73183;-81
2021/10/23 19:30:55;;;;;;;;;36.25;30.25;;;;;;;;4878321;28;45608;-80
2021/10/23 19:33:22;;;;;;;;;29.25;27.00;;;;;;;;4819333;29;46118;-80
2021/10/23 19:36:07;;;;;;;;;36.00;28.25;;;;;;;;4981151;22;45865;-79
2021/10/23 19:38:51;;;;;;;;;33.00;28.50;;;;;;;;4981760;28;46279;-81
2021/10/23 19:41:24;;;;;;;;;30.50;29.50;;;;;;;;5001827;28;46220;-82
2021/10/23 19:44:19;;;;;;;;;37.50;30.25;;;;;;;;4994006;28;45816;-81
2021/10/23 19:53:17;;;;;;;;;40.25;30.50;;;;;;;;4934949;28;46695;-81
2021/10/23 19:55:50;;;;;;;;;31.50;28.75;;;;;;;;4920459;28;45718;-81
2021/10/23 19:58:21;;;;;;;;;39.50;33.25;;;;;;;;4915540;28;45537;-80
2021/10/23 20:00:57;;;;;;;;;;;;;;;;;;;;;
2021/10/23 20:03:23;;;;;;;;;44.50;33.50;;;;;;;;4947969;22;75810;-93
2021/10/23 20:08:43;;;;;;;;;43.00;38.50;;;;;;;;6182418;22;46134;-80
2021/10/23 20:11:27;;;;;;;;;40.50;34.75;;;;;;;;4961218;28;47492;-81
2021/10/23 20:16:40;;;;;;;;;40.25;32.25;;;;;;;;4973393;28;45829;-81
2021/10/23 20:19:20;;;;;;;;;44.00;36.50;;;;;;;;4977782;28;45799;-81
2021/10/23 20:21:48;;;;;;;;;40.50;37.00;;;;;;;;4982695;28;45940;-82
2021/10/23 20:24:38;;;;;;;;;;;;;;;;;;;;;
2021/10/23 20:27:15;;;;;;;;;40.25;37.00;;;;;;;;4974205;28;71489;-81
2021/10/23 20:29:44;;;;;;;;;43.25;37.00;;;;;;;;4977601;28;46836;-81
2021/10/23 20:35:40;;;;;;;;;42.50;39.50;;;;;;;;4926554;28;46226;-81
2021/10/23 20:40:53;;;;;;;;;63.00;47.25;;;;;;;;865471;25;46102;-80
2021/10/23 20:43:19;;;;;;;;;59.75;44.50;;;;;;;;5071248;22;45479;-94
2021/10/23 20:45:44;;;;;;;;;49.50;41.00;;;;;;;;5041020;28;47322;-95
2021/10/23 20:48:27;;;;;;;;;47.25;39.50;;;;;;;;5049680;27;45530;-94
2021/10/23 20:51:01;;;;;;;;;39.50;38.00;;;;;;;;5060012;22;45928;-81
2021/10/23 20:59:22;;;;;;;;;47.50;36.50;;;;;;;;4976017;28;46053;-81
2021/10/23 21:01:47;;;;;;;;;42.25;38.25;;;;;;;;4996574;28;45592;-81
2021/10/23 21:04:13;;;;;;;;;36.75;31.75;;;;;;;;4997577;28;45589;-81
2021/10/23 21:06:38;;;;;;;;;41.00;37.00;;;;;;;;4982746;28;48517;-81
2021/10/23 21:09:05;;;;;;;;;49.25;39.00;;;;;;;;5000001;28;45590;-81
2021/10/23 21:11:31;;;;;;;;;37.50;35.50;;;;;;;;5032149;22;46078;-94